sensor_id;sensor_type;location;lat;lon;timestamp;pressure;altitude;pressure_sealevel;temperature;humidity
9899;BME280;4988;49.238;6.698;2024-02-23T00:00:29;97079.50;;;6.49;97.58
9899;BME280;4988;49.238;6.698;2024-02-23T00:02:54;97079.50;;;6.49;97.39
9899;BME280;4988;49.238;6.698;2024-02-23T00:05:21;97113.09;;;6.47;97.71
9899;BME280;4988;49.238;6.698;2024-02-23T00:07:47;97167.66;;;6.48;97.95
9899;BME280;4988;49.238;6.698;2024-02-23T00:10:12;97166.19;;;5.68;98.62
9899;BME280;4988;49.238;6.698;2024-02-23T00:12:37;97186.00;;;4.97;100.00
9899;BME280;4988;49.238;6.698;2024-02-23T00:15:03;97184.66;;;4.40;100.00
9899;BME280;4988;49.238;6.698;2024-02-23T00:17:29;97191.91;;;4.01;100.00
9899;BME280;4988;49.238;6.698;2024-02-23T00:19:54;97202.91;;;3.92;100.00
9899;BME280;4988;49.238;6.698;2024-02-23T00:22:19;97191.84;;;3.85;100.00
9899;BME280;4988;49.238;6.698;2024-02-23T00:24:45;97190.38;;;3.80;100.00
9899;BME280;4988;49.238;6.698;2024-02-23T00:27:10;97192.78;;;3.84;100.00
9899;BME280;4988;49.238;6.698;2024-02-23T00:29:35;97188.66;;;3.79;100.00
9899;BME280;4988;49.238;6.698;2024-02-23T00:32:02;97182.31;;;3.83;100.00
9899;BME280;4988;49.238;6.698;2024-02-23T00:34:27;97180.56;;;3.83;100.00
9899;BME280;4988;49.238;6.698;2024-02-23T00:36:55;97179.38;;;3.89;100.00
9899;BME280;4988;49.238;6.698;2024-02-23T00:39:20;97190.59;;;3.93;100.00
9899;BME280;4988;49.238;6.698;2024-02-23T00:41:46;97191.47;;;3.93;100.00
9899;BME280;4988;49.238;6.698;2024-02-23T00:44:12;97198.75;;;3.88;100.00
9899;BME280;4988;49.238;6.698;2024-02-23T00:46:37;97201.28;;;3.90;100.00
9899;BME280;4988;49.238;6.698;2024-02-23T00:49:02;97192.31;;;3.94;100.00
9899;BME280;4988;49.238;6.698;2024-02-23T00:51:28;97194.53;;;4.01;100.00
9899;BME280;4988;49.238;6.698;2024-02-23T00:53:53;97200.19;;;4.11;100.00
9899;BME280;4988;49.238;6.698;2024-02-23T00:56:18;97198.56;;;4.26;100.00
9899;BME280;4988;49.238;6.698;2024-02-23T00:58:44;97202.88;;;4.45;100.00
9899;BME280;4988;49.238;6.698;2024-02-23T01:01:09;97200.63;;;4.71;100.00
9899;BME280;4988;49.238;6.698;2024-02-23T01:03:34;97218.75;;;4.77;100.00
9899;BME280;4988;49.238;6.698;2024-02-23T01:06:00;97233.69;;;4.76;100.00
9899;BME280;4988;49.238;6.698;2024-02-23T01:08:25;97224.63;;;4.31;100.00
9899;BME280;4988;49.238;6.698;2024-02-23T01:10:50;97225.19;;;4.02;100.00
9899;BME280;4988;49.238;6.698;2024-02-23T01:13:16;97223.75;;;3.97;100.00
9899;BME280;4988;49.238;6.698;2024-02-23T01:15:42;97234.09;;;3.82;100.00
9899;BME280;4988;49.238;6.698;2024-02-23T01:18:07;97231.78;;;3.76;100.00
9899;BME280;4988;49.238;6.698;2024-02-23T01:20:33;97241.53;;;3.74;100.00
9899;BME280;4988;49.238;6.698;2024-02-23T01:22:58;97246.09;;;3.70;100.00
9899;BME280;4988;49.238;6.698;2024-02-23T01:25:24;97242.75;;;3.67;100.00
9899;BME280;4988;49.238;6.698;2024-02-23T01:27:49;97254.97;;;3.68;100.00
9899;BME280;4988;49.238;6.698;2024-02-23T01:30:14;97258.47;;;3.68;100.00
9899;BME280;4988;49.238;6.698;2024-02-23T01:32:40;97240.91;;;3.69;100.00
9899;BME280;4988;49.238;6.698;2024-02-23T01:35:06;97244.25;;;3.73;100.00
9899;BME280;4988;49.238;6.698;2024-02-23T01:37:32;97246.88;;;3.73;100.00
9899;BME280;4988;49.238;6.698;2024-02-23T01:39:58;97251.34;;;3.70;100.00
9899;BME280;4988;49.238;6.698;2024-02-23T01:42:24;97260.94;;;3.72;100.00
9899;BME280;4988;49.238;6.698;2024-02-23T01:44:51;97259.94;;;3.74;100.00
9899;BME280;4988;49.238;6.698;2024-02-23T01:47:16;97260.81;;;3.75;100.00
9899;BME280;4988;49.238;6.698;2024-02-23T01:49:41;97266.84;;;3.77;100.00
9899;BME280;4988;49.238;6.698;2024-02-23T01:52:07;97262.44;;;3.77;100.00
9899;BME280;4988;49.238;6.698;2024-02-23T01:54:33;97257.09;;;3.79;100.00
9899;BME280;4988;49.238;6.698;2024-02-23T01:56:59;97270.34;;;3.77;100.00
9899;BME280;4988;49.238;6.698;2024-02-23T01:59:25;97266.78;;;3.78;100.00
9899;BME280;4988;49.238;6.698;2024-02-23T02:01:51;97272.81;;;3.80;100.00
9899;BME280;4988;49.238;6.698;2024-02-23T02:04:16;97264.78;;;3.83;100.00
9899;BME280;4988;49.238;6.698;2024-02-23T02:06:42;97263.75;;;3.86;100.00
9899;BME280;4988;49.238;6.698;2024-02-23T02:09:08;97268.81;;;3.91;100.00
9899;BME280;4988;49.238;6.698;2024-02-23T02:11:33;97266.16;;;3.91;100.00
9899;BME280;4988;49.238;6.698;2024-02-23T02:13:58;97268.72;;;3.92;100.00
9899;BME280;4988;49.238;6.698;2024-02-23T02:16:24;97275.53;;;3.96;100.00
9899;BME280;4988;49.238;6.698;2024-02-23T02:18:49;97271.97;;;3.97;100.00
9899;BME280;4988;49.238;6.698;2024-02-23T02:21:14;97265.88;;;3.97;100.00
9899;BME280;4988;49.238;6.698;2024-02-23T02:23:40;97271.88;;;3.99;100.00
9899;BME280;4988;49.238;6.698;2024-02-23T02:26:05;97272.66;;;4.01;100.00
9899;BME280;4988;49.238;6.698;2024-02-23T02:28:31;97273.69;;;3.98;100.00
9899;BME280;4988;49.238;6.698;2024-02-23T02:30:56;97276.09;;;4.03;100.00
9899;BME280;4988;49.238;6.698;2024-02-23T02:33:22;97266.47;;;4.02;100.00
9899;BME280;4988;49.238;6.698;2024-02-23T02:35:47;97258.38;;;4.07;100.00
9899;BME280;4988;49.238;6.698;2024-02-23T02:38:13;97254.72;;;4.09;100.00
9899;BME280;4988;49.238;6.698;2024-02-23T02:40:38;97246.41;;;4.17;100.00
9899;BME280;4988;49.238;6.698;2024-02-23T02:43:04;97252.38;;;4.21;100.00
9899;BME280;4988;49.238;6.698;2024-02-23T02:45:29;97247.97;;;4.21;100.00
9899;BME280;4988;49.238;6.698;2024-02-23T02:47:55;97244.50;;;4.21;100.00
9899;BME280;4988;49.238;6.698;2024-02-23T02:50:21;97246.34;;;4.18;100.00
9899;BME280;4988;49.238;6.698;2024-02-23T02:52:46;97242.78;;;4.19;100.00
9899;BME280;4988;49.238;6.698;2024-02-23T02:55:12;97233.34;;;4.15;100.00
9899;BME280;4988;49.238;6.698;2024-02-23T02:57:37;97230.75;;;4.14;100.00
9899;BME280;4988;49.238;6.698;2024-02-23T03:00:03;97231.94;;;4.08;100.00
9899;BME280;4988;49.238;6.698;2024-02-23T03:02:34;97223.25;;;4.06;100.00
9899;BME280;4988;49.238;6.698;2024-02-23T03:05:00;97215.28;;;4.08;100.00
9899;BME280;4988;49.238;6.698;2024-02-23T03:07:25;97220.50;;;4.09;100.00
9899;BME280;4988;49.238;6.698;2024-02-23T03:09:51;97213.75;;;4.03;100.00
9899;BME280;4988;49.238;6.698;2024-02-23T03:12:16;97216.47;;;4.02;100.00
9899;BME280;4988;49.238;6.698;2024-02-23T03:14:42;97215.75;;;3.98;100.00
9899;BME280;4988;49.238;6.698;2024-02-23T03:17:08;97216.78;;;3.96;100.00
9899;BME280;4988;49.238;6.698;2024-02-23T03:19:34;97216.88;;;3.94;100.00
9899;BME280;4988;49.238;6.698;2024-02-23T03:22:00;97220.47;;;3.92;100.00
9899;BME280;4988;49.238;6.698;2024-02-23T03:24:25;97221.56;;;3.88;100.00
9899;BME280;4988;49.238;6.698;2024-02-23T03:26:50;97216.91;;;3.93;100.00
9899;BME280;4988;49.238;6.698;2024-02-23T03:29:16;97231.00;;;3.92;100.00
9899;BME280;4988;49.238;6.698;2024-02-23T03:31:41;97231.16;;;3.89;100.00
9899;BME280;4988;49.238;6.698;2024-02-23T03:34:07;97229.25;;;3.92;100.00
9899;BME280;4988;49.238;6.698;2024-02-23T03:36:33;97236.34;;;3.90;100.00
9899;BME280;4988;49.238;6.698;2024-02-23T03:38:59;97235.19;;;3.96;100.00
9899;BME280;4988;49.238;6.698;2024-02-23T03:41:25;97238.22;;;3.88;100.00
9899;BME280;4988;49.238;6.698;2024-02-23T03:43:51;97232.72;;;3.93;100.00
9899;BME280;4988;49.238;6.698;2024-02-23T03:46:16;97232.25;;;3.84;100.00
9899;BME280;4988;49.238;6.698;2024-02-23T03:48:42;97241.91;;;3.84;100.00
9899;BME280;4988;49.238;6.698;2024-02-23T03:51:08;97238.84;;;3.93;100.00
9899;BME280;4988;49.238;6.698;2024-02-23T03:53:34;97246.03;;;3.90;100.00
9899;BME280;4988;49.238;6.698;2024-02-23T03:55:59;97246.56;;;3.79;100.00
9899;BME280;4988;49.238;6.698;2024-02-23T03:58:25;97241.69;;;3.89;100.00
9899;BME280;4988;49.238;6.698;2024-02-23T04:00:51;97248.19;;;3.99;100.00
9899;BME280;4988;49.238;6.698;2024-02-23T04:03:16;97230.41;;;4.04;100.00
9899;BME280;4988;49.238;6.698;2024-02-23T04:05:42;97235.34;;;3.93;100.00
9899;BME280;4988;49.238;6.698;2024-02-23T04:08:07;97243.25;;;3.93;100.00
9899;BME280;4988;49.238;6.698;2024-02-23T04:10:32;97240.25;;;4.00;100.00
9899;BME280;4988;49.238;6.698;2024-02-23T04:12:58;97231.56;;;3.98;100.00
9899;BME280;4988;49.238;6.698;2024-02-23T04:15:23;97237.06;;;3.94;100.00
9899;BME280;4988;49.238;6.698;2024-02-23T04:17:48;97243.25;;;3.93;100.00
9899;BME280;4988;49.238;6.698;2024-02-23T04:20:14;97238.38;;;3.85;100.00
9899;BME280;4988;49.238;6.698;2024-02-23T04:22:39;97239.16;;;3.87;100.00
9899;BME280;4988;49.238;6.698;2024-02-23T04:25:05;97232.56;;;3.96;100.00
9899;BME280;4988;49.238;6.698;2024-02-23T04:27:30;97244.03;;;3.77;100.00
9899;BME280;4988;49.238;6.698;2024-02-23T04:29:56;97238.34;;;3.67;100.00
9899;BME280;4988;49.238;6.698;2024-02-23T04:32:21;97248.09;;;3.65;100.00
9899;BME280;4988;49.238;6.698;2024-02-23T04:34:46;97239.41;;;3.63;100.00
9899;BME280;4988;49.238;6.698;2024-02-23T04:37:12;97239.97;;;3.52;100.00
9899;BME280;4988;49.238;6.698;2024-02-23T04:39:37;97241.88;;;3.49;100.00
9899;BME280;4988;49.238;6.698;2024-02-23T04:42:07;97247.06;;;3.50;100.00
9899;BME280;4988;49.238;6.698;2024-02-23T04:44:34;97244.28;;;3.53;100.00
9899;BME280;4988;49.238;6.698;2024-02-23T04:46:59;97237.75;;;3.43;100.00
9899;BME280;4988;49.238;6.698;2024-02-23T04:49:24;97229.56;;;3.49;100.00
9899;BME280;4988;49.238;6.698;2024-02-23T04:51:50;97241.63;;;3.53;100.00
9899;BME280;4988;49.238;6.698;2024-02-23T04:54:15;97234.28;;;3.43;100.00
9899;BME280;4988;49.238;6.698;2024-02-23T04:56:40;97235.13;;;3.43;100.00
9899;BME280;4988;49.238;6.698;2024-02-23T04:59:06;97233.28;;;3.45;100.00
9899;BME280;4988;49.238;6.698;2024-02-23T05:01:35;97231.59;;;3.44;100.00
9899;BME280;4988;49.238;6.698;2024-02-23T05:04:01;97237.22;;;3.36;100.00
9899;BME280;4988;49.238;6.698;2024-02-23T05:06:26;97233.09;;;3.31;100.00
9899;BME280;4988;49.238;6.698;2024-02-23T05:08:52;97225.50;;;3.25;100.00
9899;BME280;4988;49.238;6.698;2024-02-23T05:11:17;97226.63;;;3.19;100.00
9899;BME280;4988;49.238;6.698;2024-02-23T05:13:42;97216.41;;;3.13;100.00
9899;BME280;4988;49.238;6.698;2024-02-23T05:16:08;97214.84;;;3.09;100.00
9899;BME280;4988;49.238;6.698;2024-02-23T05:18:33;97217.56;;;3.07;100.00
9899;BME280;4988;49.238;6.698;2024-02-23T05:21:00;97212.44;;;3.04;100.00
9899;BME280;4988;49.238;6.698;2024-02-23T05:23:25;97203.78;;;3.02;100.00
9899;BME280;4988;49.238;6.698;2024-02-23T05:25:50;97212.72;;;2.98;100.00
9899;BME280;4988;49.238;6.698;2024-02-23T05:28:16;97194.97;;;3.03;100.00
9899;BME280;4988;49.238;6.698;2024-02-23T05:30:41;97191.41;;;3.04;100.00
9899;BME280;4988;49.238;6.698;2024-02-23T05:33:07;97190.34;;;3.08;100.00
9899;BME280;4988;49.238;6.698;2024-02-23T05:35:33;97197.44;;;3.06;100.00
9899;BME280;4988;49.238;6.698;2024-02-23T05:37:58;97188.22;;;2.97;100.00
9899;BME280;4988;49.238;6.698;2024-02-23T05:40:24;97175.22;;;2.94;100.00
9899;BME280;4988;49.238;6.698;2024-02-23T05:42:49;97183.34;;;2.89;100.00
9899;BME280;4988;49.238;6.698;2024-02-23T05:45:16;97185.03;;;2.90;100.00
9899;BME280;4988;49.238;6.698;2024-02-23T05:47:42;97169.25;;;2.90;100.00
9899;BME280;4988;49.238;6.698;2024-02-23T05:50:08;97176.09;;;2.95;100.00
9899;BME280;4988;49.238;6.698;2024-02-23T05:52:34;97171.84;;;2.92;100.00
9899;BME280;4988;49.238;6.698;2024-02-23T05:55:01;97178.94;;;2.90;100.00
9899;BME280;4988;49.238;6.698;2024-02-23T05:57:27;97167.72;;;2.86;100.00
9899;BME280;4988;49.238;6.698;2024-02-23T05:59:53;97168.50;;;2.88;100.00
9899;BME280;4988;49.238;6.698;2024-02-23T06:02:18;97169.53;;;2.84;100.00
9899;BME280;4988;49.238;6.698;2024-02-23T06:04:43;97174.22;;;2.97;100.00
9899;BME280;4988;49.238;6.698;2024-02-23T06:07:09;97170.88;;;2.93;100.00
9899;BME280;4988;49.238;6.698;2024-02-23T06:09:34;97171.88;;;2.90;100.00
9899;BME280;4988;49.238;6.698;2024-02-23T06:12:00;97173.13;;;2.83;100.00
9899;BME280;4988;49.238;6.698;2024-02-23T06:14:25;97171.41;;;2.82;100.00
9899;BME280;4988;49.238;6.698;2024-02-23T06:16:50;97175.81;;;2.82;100.00
9899;BME280;4988;49.238;6.698;2024-02-23T06:19:16;97169.53;;;2.84;100.00
9899;BME280;4988;49.238;6.698;2024-02-23T06:21:41;97168.50;;;2.88;100.00
9899;BME280;4988;49.238;6.698;2024-02-23T06:24:07;97162.03;;;2.96;100.00
9899;BME280;4988;49.238;6.698;2024-02-23T06:26:34;97164.41;;;3.00;100.00
9899;BME280;4988;49.238;6.698;2024-02-23T06:28:59;97172.38;;;2.99;100.00
9899;BME280;4988;49.238;6.698;2024-02-23T06:31:24;97174.09;;;3.00;100.00
9899;BME280;4988;49.238;6.698;2024-02-23T06:33:50;97177.06;;;3.11;100.00
9899;BME280;4988;49.238;6.698;2024-02-23T06:36:17;97177.97;;;3.10;100.00
9899;BME280;4988;49.238;6.698;2024-02-23T06:38:43;97175.97;;;3.15;100.00
9899;BME280;4988;49.238;6.698;2024-02-23T06:41:08;97168.25;;;3.12;100.00
9899;BME280;4988;49.238;6.698;2024-02-23T06:43:36;97159.53;;;3.12;100.00
9899;BME280;4988;49.238;6.698;2024-02-23T06:46:08;97171.38;;;3.20;100.00
9899;BME280;4988;49.238;6.698;2024-02-23T06:48:34;97174.44;;;3.11;100.00
9899;BME280;4988;49.238;6.698;2024-02-23T06:50:59;97182.31;;;3.11;100.00
9899;BME280;4988;49.238;6.698;2024-02-23T06:53:25;97181.19;;;3.17;100.00
9899;BME280;4988;49.238;6.698;2024-02-23T06:55:50;97180.19;;;3.19;100.00
9899;BME280;4988;49.238;6.698;2024-02-23T06:58:15;97186.34;;;3.18;100.00
9899;BME280;4988;49.238;6.698;2024-02-23T07:00:42;97188.97;;;3.18;100.00
9899;BME280;4988;49.238;6.698;2024-02-23T07:03:07;97190.41;;;3.26;100.00
9899;BME280;4988;49.238;6.698;2024-02-23T07:05:32;97184.91;;;3.30;100.00
9899;BME280;4988;49.238;6.698;2024-02-23T07:07:58;97191.63;;;3.36;100.00
9899;BME280;4988;49.238;6.698;2024-02-23T07:10:23;97191.63;;;3.36;100.00
9899;BME280;4988;49.238;6.698;2024-02-23T07:12:50;97181.75;;;3.41;100.00
9899;BME280;4988;49.238;6.698;2024-02-23T07:15:19;97194.59;;;3.47;100.00
9899;BME280;4988;49.238;6.698;2024-02-23T07:17:45;97197.22;;;3.47;100.00
9899;BME280;4988;49.238;6.698;2024-02-23T07:20:10;97195.88;;;3.58;100.00
9899;BME280;4988;49.238;6.698;2024-02-23T07:22:36;97195.56;;;3.64;100.00
9899;BME280;4988;49.238;6.698;2024-02-23T07:25:01;97205.78;;;3.70;100.00
9899;BME280;4988;49.238;6.698;2024-02-23T07:27:29;97210.72;;;3.76;100.00
9899;BME280;4988;49.238;6.698;2024-02-23T07:29:54;97215.00;;;3.79;100.00
9899;BME280;4988;49.238;6.698;2024-02-23T07:32:19;97221.56;;;3.70;100.00
9899;BME280;4988;49.238;6.698;2024-02-23T07:34:45;97202.53;;;3.82;100.00
9899;BME280;4988;49.238;6.698;2024-02-23T07:37:10;97225.91;;;3.89;100.00
9899;BME280;4988;49.238;6.698;2024-02-23T07:39:35;97218.78;;;3.91;100.00
9899;BME280;4988;49.238;6.698;2024-02-23T07:42:01;97217.47;;;3.99;100.00
9899;BME280;4988;49.238;6.698;2024-02-23T07:44:27;97218.63;;;4.11;100.00
9899;BME280;4988;49.238;6.698;2024-02-23T07:46:53;97213.13;;;4.16;100.00
9899;BME280;4988;49.238;6.698;2024-02-23T07:49:20;97219.16;;;4.18;100.00
9899;BME280;4988;49.238;6.698;2024-02-23T07:51:45;97221.09;;;4.14;100.00
9899;BME280;4988;49.238;6.698;2024-02-23T07:54:10;97221.16;;;4.30;100.00
9899;BME280;4988;49.238;6.698;2024-02-23T07:56:36;97224.91;;;4.26;100.00
9899;BME280;4988;49.238;6.698;2024-02-23T07:59:01;97224.94;;;4.25;100.00
9899;BME280;4988;49.238;6.698;2024-02-23T08:01:28;97228.19;;;4.30;100.00
9899;BME280;4988;49.238;6.698;2024-02-23T08:03:54;97221.63;;;4.39;100.00
9899;BME280;4988;49.238;6.698;2024-02-23T08:06:19;97230.69;;;4.33;100.00
9899;BME280;4988;49.238;6.698;2024-02-23T08:08:45;97239.44;;;4.33;100.00
9899;BME280;4988;49.238;6.698;2024-02-23T08:11:11;97239.38;;;4.35;100.00
9899;BME280;4988;49.238;6.698;2024-02-23T08:13:37;97246.63;;;4.30;100.00
9899;BME280;4988;49.238;6.698;2024-02-23T08:16:02;97243.16;;;4.29;100.00
9899;BME280;4988;49.238;6.698;2024-02-23T08:18:28;97245.97;;;4.26;100.00
9899;BME280;4988;49.238;6.698;2024-02-23T08:20:54;97251.59;;;4.18;100.00
9899;BME280;4988;49.238;6.698;2024-02-23T08:23:19;97251.56;;;4.20;100.00
9899;BME280;4988;49.238;6.698;2024-02-23T08:25:46;97243.06;;;4.31;100.00
9899;BME280;4988;49.238;6.698;2024-02-23T08:28:11;97248.97;;;4.36;100.00
9899;BME280;4988;49.238;6.698;2024-02-23T08:30:37;97241.91;;;4.37;100.00
9899;BME280;4988;49.238;6.698;2024-02-23T08:33:02;97244.94;;;4.46;100.00
9899;BME280;4988;49.238;6.698;2024-02-23T08:35:27;97244.38;;;4.57;100.00
9899;BME280;4988;49.238;6.698;2024-02-23T08:37:53;97252.50;;;4.53;100.00
9899;BME280;4988;49.238;6.698;2024-02-23T08:40:19;97251.13;;;4.45;100.00
9899;BME280;4988;49.238;6.698;2024-02-23T08:42:44;97252.03;;;4.44;100.00
9899;BME280;4988;49.238;6.698;2024-02-23T08:45:12;97251.97;;;4.46;100.00
9899;BME280;4988;49.238;6.698;2024-02-23T08:47:39;97250.97;;;4.48;100.00
9899;BME280;4988;49.238;6.698;2024-02-23T08:50:05;97251.25;;;4.60;100.00
9899;BME280;4988;49.238;6.698;2024-02-23T08:52:31;97246.59;;;4.65;100.00
9899;BME280;4988;49.238;6.698;2024-02-23T08:54:56;97251.88;;;4.65;100.00
9899;BME280;4988;49.238;6.698;2024-02-23T08:57:22;97243.47;;;4.74;100.00
9899;BME280;4988;49.238;6.698;2024-02-23T08:59:49;97243.22;;;4.79;100.00
9899;BME280;4988;49.238;6.698;2024-02-23T09:02:14;97243.22;;;4.79;100.00
9899;BME280;4988;49.238;6.698;2024-02-23T09:04:39;97245.94;;;4.77;100.00
9899;BME280;4988;49.238;6.698;2024-02-23T09:07:05;97246.13;;;4.74;100.00
9899;BME280;4988;49.238;6.698;2024-02-23T09:09:30;97245.78;;;4.80;100.00
9899;BME280;4988;49.238;6.698;2024-02-23T09:11:56;97234.03;;;4.86;100.00
9899;BME280;4988;49.238;6.698;2024-02-23T09:14:21;97231.41;;;4.86;100.00
9899;BME280;4988;49.238;6.698;2024-02-23T09:16:46;97233.22;;;4.86;100.00
9899;BME280;4988;49.238;6.698;2024-02-23T09:19:15;97230.47;;;4.87;100.00
9899;BME280;4988;49.238;6.698;2024-02-23T09:21:41;97228.28;;;4.95;100.00
9899;BME280;4988;49.238;6.698;2024-02-23T09:24:06;97235.19;;;4.98;100.00
9899;BME280;4988;49.238;6.698;2024-02-23T09:26:31;97239.19;;;5.05;100.00
9899;BME280;4988;49.238;6.698;2024-02-23T09:28:57;97239.69;;;5.12;100.00
9899;BME280;4988;49.238;6.698;2024-02-23T09:31:22;97240.38;;;5.15;100.00
9899;BME280;4988;49.238;6.698;2024-02-23T09:33:47;97230.84;;;5.29;100.00
9899;BME280;4988;49.238;6.698;2024-02-23T09:36:15;97240.53;;;5.44;100.00
9899;BME280;4988;49.238;6.698;2024-02-23T09:38:41;97224.03;;;5.57;100.00
9899;BME280;4988;49.238;6.698;2024-02-23T09:41:13;97227.31;;;5.60;100.00
9899;BME280;4988;49.238;6.698;2024-02-23T09:43:42;97224.66;;;5.76;100.00
9899;BME280;4988;49.238;6.698;2024-02-23T09:46:10;97225.69;;;5.74;100.00
9899;BME280;4988;49.238;6.698;2024-02-23T09:48:35;97224.97;;;5.86;100.00
9899;BME280;4988;49.238;6.698;2024-02-23T09:51:02;97238.34;;;5.83;100.00
9899;BME280;4988;49.238;6.698;2024-02-23T09:53:29;97228.06;;;5.78;100.00
9899;BME280;4988;49.238;6.698;2024-02-23T09:55:57;97235.72;;;5.83;100.00
9899;BME280;4988;49.238;6.698;2024-02-23T09:58:24;97235.38;;;5.89;100.00
9899;BME280;4988;49.238;6.698;2024-02-23T10:00:52;97232.19;;;5.99;100.00
9899;BME280;4988;49.238;6.698;2024-02-23T10:03:18;97230.25;;;5.86;100.00
9899;BME280;4988;49.238;6.698;2024-02-23T10:05:43;97237.56;;;5.97;100.00
9899;BME280;4988;49.238;6.698;2024-02-23T10:08:10;97236.84;;;6.09;100.00
9899;BME280;4988;49.238;6.698;2024-02-23T10:10:37;97231.31;;;6.14;100.00
9899;BME280;4988;49.238;6.698;2024-02-23T10:13:02;97214.25;;;6.20;100.00
9899;BME280;4988;49.238;6.698;2024-02-23T10:15:29;97221.81;;;6.40;100.00
9899;BME280;4988;49.238;6.698;2024-02-23T10:17:56;97210.06;;;6.60;99.79
9899;BME280;4988;49.238;6.698;2024-02-23T10:20:21;97214.31;;;6.78;99.72
9899;BME280;4988;49.238;6.698;2024-02-23T10:22:47;97213.34;;;6.79;97.23
9899;BME280;4988;49.238;6.698;2024-02-23T10:25:12;97213.63;;;6.88;95.81
9899;BME280;4988;49.238;6.698;2024-02-23T10:27:37;97212.00;;;7.00;95.22
9899;BME280;4988;49.238;6.698;2024-02-23T10:30:03;97214.44;;;7.18;94.77
9899;BME280;4988;49.238;6.698;2024-02-23T10:32:29;97209.34;;;7.15;94.32
9899;BME280;4988;49.238;6.698;2024-02-23T10:35:00;97212.06;;;7.13;94.82
9899;BME280;4988;49.238;6.698;2024-02-23T10:37:26;97219.16;;;7.13;95.34
9899;BME280;4988;49.238;6.698;2024-02-23T10:39:57;97219.38;;;7.10;94.50
9899;BME280;4988;49.238;6.698;2024-02-23T10:42:28;97219.84;;;7.02;94.22
9899;BME280;4988;49.238;6.698;2024-02-23T10:44:58;97232.78;;;7.21;93.75
9899;BME280;4988;49.238;6.698;2024-02-23T10:47:26;97225.56;;;7.23;93.20
9899;BME280;4988;49.238;6.698;2024-02-23T10:49:52;97235.69;;;7.16;92.45
9899;BME280;4988;49.238;6.698;2024-02-23T10:52:18;97238.28;;;7.03;92.12
9899;BME280;4988;49.238;6.698;2024-02-23T10:54:47;97239.00;;;7.05;92.80
9899;BME280;4988;49.238;6.698;2024-02-23T10:57:14;97236.56;;;7.02;91.95
9899;BME280;4988;49.238;6.698;2024-02-23T10:59:40;97237.53;;;7.01;92.33
9899;BME280;4988;49.238;6.698;2024-02-23T11:02:05;97225.78;;;7.05;90.84
9899;BME280;4988;49.238;6.698;2024-02-23T11:04:33;97228.69;;;7.15;91.65
9899;BME280;4988;49.238;6.698;2024-02-23T11:06:59;97225.63;;;7.08;88.65
9899;BME280;4988;49.238;6.698;2024-02-23T11:09:31;97222.84;;;7.10;90.26
9899;BME280;4988;49.238;6.698;2024-02-23T11:11:58;97222.66;;;7.13;90.77
9899;BME280;4988;49.238;6.698;2024-02-23T11:14:30;97216.78;;;7.22;91.65
9899;BME280;4988;49.238;6.698;2024-02-23T11:16:57;97208.19;;;7.19;88.85
9899;BME280;4988;49.238;6.698;2024-02-23T11:19:32;97205.44;;;7.20;89.41
9899;BME280;4988;49.238;6.698;2024-02-23T11:21:58;97204.50;;;7.21;87.89
9899;BME280;4988;49.238;6.698;2024-02-23T11:24:25;97206.69;;;7.15;88.83
9899;BME280;4988;49.238;6.698;2024-02-23T11:27:00;97211.50;;;7.22;87.59
9899;BME280;4988;49.238;6.698;2024-02-23T11:29:33;97206.09;;;7.24;88.90
9899;BME280;4988;49.238;6.698;2024-02-23T11:32:00;97213.19;;;7.23;86.56
9899;BME280;4988;49.238;6.698;2024-02-23T11:34:30;97199.28;;;7.34;87.26
9899;BME280;4988;49.238;6.698;2024-02-23T11:36:55;97200.97;;;7.35;84.92
9899;BME280;4988;49.238;6.698;2024-02-23T11:39:22;97204.47;;;7.36;87.24
9899;BME280;4988;49.238;6.698;2024-02-23T11:41:50;97197.75;;;7.30;85.61
9899;BME280;4988;49.238;6.698;2024-02-23T11:44:16;97196.53;;;7.36;86.89
9899;BME280;4988;49.238;6.698;2024-02-23T11:46:44;97193.50;;;7.42;85.22
9899;BME280;4988;49.238;6.698;2024-02-23T11:49:11;97184.09;;;7.51;84.61
9899;BME280;4988;49.238;6.698;2024-02-23T11:51:37;97180.59;;;7.50;83.50
9899;BME280;4988;49.238;6.698;2024-02-23T11:54:02;97180.75;;;7.62;83.85
9899;BME280;4988;49.238;6.698;2024-02-23T11:56:29;97178.16;;;7.47;83.18
9899;BME280;4988;49.238;6.698;2024-02-23T11:58:54;97181.31;;;7.39;82.71
9899;BME280;4988;49.238;6.698;2024-02-23T12:01:20;97179.84;;;7.48;84.83
9899;BME280;4988;49.238;6.698;2024-02-23T12:03:46;97181.97;;;7.56;85.31
9899;BME280;4988;49.238;6.698;2024-02-23T12:06:11;97181.59;;;7.62;85.90
9899;BME280;4988;49.238;6.698;2024-02-23T12:08:38;97177.88;;;7.65;84.84
9899;BME280;4988;49.238;6.698;2024-02-23T12:11:05;97169.84;;;7.66;84.06
9899;BME280;4988;49.238;6.698;2024-02-23T12:13:30;97171.03;;;7.75;82.90
9899;BME280;4988;49.238;6.698;2024-02-23T12:15:57;97166.44;;;8.04;86.65
9899;BME280;4988;49.238;6.698;2024-02-23T12:18:22;97163.59;;;8.20;85.62
9899;BME280;4988;49.238;6.698;2024-02-23T12:23:42;97151.59;;;8.28;82.49
9899;BME280;4988;49.238;6.698;2024-02-23T12:26:09;97153.69;;;7.97;82.00
9899;BME280;4988;49.238;6.698;2024-02-23T12:28:35;97155.78;;;7.79;83.28
9899;BME280;4988;49.238;6.698;2024-02-23T12:31:05;97161.09;;;7.79;83.56
9899;BME280;4988;49.238;6.698;2024-02-23T12:33:32;97152.41;;;7.77;83.99
9899;BME280;4988;49.238;6.698;2024-02-23T12:36:02;97147.22;;;7.88;81.14
9899;BME280;4988;49.238;6.698;2024-02-23T12:38:28;97144.78;;;7.85;82.79
9899;BME280;4988;49.238;6.698;2024-02-23T12:40:53;97150.16;;;7.83;83.58
9899;BME280;4988;49.238;6.698;2024-02-23T12:43:19;97150.25;;;7.69;84.14
9899;BME280;4988;49.238;6.698;2024-02-23T12:45:54;97136.38;;;7.65;87.18
9899;BME280;4988;49.238;6.698;2024-02-23T12:48:20;97133.78;;;7.51;88.66
9899;BME280;4988;49.238;6.698;2024-02-23T12:50:46;97138.09;;;7.39;90.47
9899;BME280;4988;49.238;6.698;2024-02-23T12:53:35;97134.31;;;7.43;91.47
9899;BME280;4988;49.238;6.698;2024-02-23T12:56:04;97134.31;;;7.56;90.58
9899;BME280;4988;49.238;6.698;2024-02-23T12:58:31;97143.56;;;7.63;91.69
9899;BME280;4988;49.238;6.698;2024-02-23T13:00:56;97136.97;;;7.43;92.79
9899;BME280;4988;49.238;6.698;2024-02-23T13:03:23;97135.78;;;7.47;97.54
9899;BME280;4988;49.238;6.698;2024-02-23T13:05:49;97116.13;;;7.64;97.85
9899;BME280;4988;49.238;6.698;2024-02-23T13:08:15;97120.81;;;7.73;99.54
9899;BME280;4988;49.238;6.698;2024-02-23T13:10:41;97117.00;;;7.78;97.08
9899;BME280;4988;49.238;6.698;2024-02-23T13:13:06;97123.56;;;7.59;98.22
9899;BME280;4988;49.238;6.698;2024-02-23T13:15:32;97122.25;;;7.52;99.76
9899;BME280;4988;49.238;6.698;2024-02-23T13:17:57;97133.75;;;7.38;100.00
9899;BME280;4988;49.238;6.698;2024-02-23T13:20:22;97139.94;;;7.24;100.00